sensor_id;sensor_type;location;lat;lon;timestamp;P1;durP1;ratioP1;P2;durP2;ratioP2
64795;SDS011;51229;51.980;6.722;2022-09-25T00:01:19;9.80;;;3.08;;
64795;SDS011;51229;51.980;6.722;2022-09-25T00:03:45;7.40;;;2.85;;
64795;SDS011;51229;51.980;6.722;2022-09-25T00:06:16;7.30;;;2.92;;
64795;SDS011;51229;51.980;6.722;2022-09-25T00:08:43;8.63;;;3.30;;
64795;SDS011;51229;51.980;6.722;2022-09-25T00:11:11;8.25;;;3.40;;
64795;SDS011;51229;51.980;6.722;2022-09-25T00:13:37;11.30;;;3.30;;
64795;SDS011;51229;51.980;6.722;2022-09-25T00:16:04;6.32;;;3.30;;
64795;SDS011;51229;51.980;6.722;2022-09-25T00:18:33;7.70;;;3.10;;
64795;SDS011;51229;51.980;6.722;2022-09-25T00:21:17;6.43;;;2.72;;
64795;SDS011;51229;51.980;6.722;2022-09-25T00:23:43;8.57;;;3.33;;
64795;SDS011;51229;51.980;6.722;2022-09-25T00:26:09;9.60;;;3.42;;
64795;SDS011;51229;51.980;6.722;2022-09-25T00:28:37;7.15;;;2.85;;
64795;SDS011;51229;51.980;6.722;2022-09-25T00:31:04;9.13;;;3.33;;
64795;SDS011;51229;51.980;6.722;2022-09-25T00:33:32;8.25;;;3.00;;
64795;SDS011;51229;51.980;6.722;2022-09-25T00:36:02;6.88;;;3.10;;
64795;SDS011;51229;51.980;6.722;2022-09-25T00:38:30;6.00;;;2.67;;
64795;SDS011;51229;51.980;6.722;2022-09-25T00:40:57;6.00;;;2.95;;
64795;SDS011;51229;51.980;6.722;2022-09-25T00:43:39;7.32;;;3.00;;
64795;SDS011;51229;51.980;6.722;2022-09-25T00:46:12;6.47;;;2.55;;
64795;SDS011;51229;51.980;6.722;2022-09-25T00:48:49;9.38;;;2.55;;
64795;SDS011;51229;51.980;6.722;2022-09-25T00:51:20;7.13;;;2.65;;
64795;SDS011;51229;51.980;6.722;2022-09-25T00:53:53;9.82;;;2.67;;
64795;SDS011;51229;51.980;6.722;2022-09-25T00:56:21;8.82;;;2.60;;
64795;SDS011;51229;51.980;6.722;2022-09-25T00:58:48;8.20;;;2.42;;
64795;SDS011;51229;51.980;6.722;2022-09-25T01:01:15;6.63;;;2.70;;
64795;SDS011;51229;51.980;6.722;2022-09-25T01:03:41;9.95;;;2.83;;
64795;SDS011;51229;51.980;6.722;2022-09-25T01:06:10;6.43;;;2.35;;
64795;SDS011;51229;51.980;6.722;2022-09-25T01:08:38;8.63;;;2.88;;
64795;SDS011;51229;51.980;6.722;2022-09-25T01:11:05;5.85;;;2.47;;
64795;SDS011;51229;51.980;6.722;2022-09-25T01:13:30;5.45;;;2.58;;
64795;SDS011;51229;51.980;6.722;2022-09-25T01:21:13;5.65;;;2.50;;
64795;SDS011;51229;51.980;6.722;2022-09-25T01:31:34;9.70;;;2.50;;
64795;SDS011;51229;51.980;6.722;2022-09-25T01:34:18;6.07;;;2.17;;
64795;SDS011;51229;51.980;6.722;2022-09-25T01:37:02;5.63;;;2.50;;
64795;SDS011;51229;51.980;6.722;2022-09-25T01:39:40;5.65;;;1.90;;
64795;SDS011;51229;51.980;6.722;2022-09-25T01:42:17;7.25;;;2.85;;
64795;SDS011;51229;51.980;6.722;2022-09-25T01:44:50;7.47;;;2.53;;
64795;SDS011;51229;51.980;6.722;2022-09-25T01:47:21;6.28;;;2.25;;
64795;SDS011;51229;51.980;6.722;2022-09-25T01:49:54;8.70;;;2.20;;
64795;SDS011;51229;51.980;6.722;2022-09-25T01:52:27;7.22;;;2.75;;
64795;SDS011;51229;51.980;6.722;2022-09-25T01:54:58;5.10;;;2.10;;
64795;SDS011;51229;51.980;6.722;2022-09-25T01:57:43;6.03;;;2.42;;
64795;SDS011;51229;51.980;6.722;2022-09-25T02:00:14;4.85;;;2.00;;
64795;SDS011;51229;51.980;6.722;2022-09-25T02:02:48;7.72;;;2.20;;
64795;SDS011;51229;51.980;6.722;2022-09-25T02:07:55;5.63;;;2.00;;
64795;SDS011;51229;51.980;6.722;2022-09-25T02:10:47;7.00;;;2.08;;
64795;SDS011;51229;51.980;6.722;2022-09-25T02:13:19;6.22;;;1.98;;
64795;SDS011;51229;51.980;6.722;2022-09-25T02:15:48;4.70;;;1.65;;
64795;SDS011;51229;51.980;6.722;2022-09-25T02:18:17;7.13;;;2.22;;
64795;SDS011;51229;51.980;6.722;2022-09-25T02:21:13;5.22;;;2.15;;
64795;SDS011;51229;51.980;6.722;2022-09-25T02:26:24;7.47;;;2.08;;
64795;SDS011;51229;51.980;6.722;2022-09-25T02:28:52;6.63;;;1.95;;
64795;SDS011;51229;51.980;6.722;2022-09-25T02:31:20;7.75;;;2.13;;
64795;SDS011;51229;51.980;6.722;2022-09-25T02:33:49;9.45;;;2.22;;
64795;SDS011;51229;51.980;6.722;2022-09-25T02:36:16;7.32;;;2.53;;
64795;SDS011;51229;51.980;6.722;2022-09-25T02:38:43;5.05;;;1.85;;
64795;SDS011;51229;51.980;6.722;2022-09-25T02:44:01;5.85;;;2.45;;
64795;SDS011;51229;51.980;6.722;2022-09-25T02:46:46;8.13;;;2.10;;
64795;SDS011;51229;51.980;6.722;2022-09-25T02:49:52;7.53;;;1.90;;
64795;SDS011;51229;51.980;6.722;2022-09-25T02:52:32;5.28;;;1.90;;
64795;SDS011;51229;51.980;6.722;2022-09-25T02:55:06;8.93;;;1.88;;
64795;SDS011;51229;51.980;6.722;2022-09-25T02:57:53;5.25;;;2.00;;
64795;SDS011;51229;51.980;6.722;2022-09-25T03:00:25;6.50;;;1.88;;
64795;SDS011;51229;51.980;6.722;2022-09-25T03:02:53;8.38;;;2.20;;
64795;SDS011;51229;51.980;6.722;2022-09-25T03:05:23;9.13;;;2.28;;
64795;SDS011;51229;51.980;6.722;2022-09-25T03:07:53;7.47;;;2.25;;
64795;SDS011;51229;51.980;6.722;2022-09-25T03:10:37;7.95;;;2.22;;
64795;SDS011;51229;51.980;6.722;2022-09-25T03:13:16;5.25;;;2.10;;
64795;SDS011;51229;51.980;6.722;2022-09-25T03:15:45;9.88;;;1.98;;
64795;SDS011;51229;51.980;6.722;2022-09-25T03:18:14;7.80;;;2.00;;
64795;SDS011;51229;51.980;6.722;2022-09-25T03:20:41;8.50;;;2.10;;
64795;SDS011;51229;51.980;6.722;2022-09-25T03:23:07;6.88;;;2.25;;
64795;SDS011;51229;51.980;6.722;2022-09-25T03:25:33;10.82;;;2.50;;
64795;SDS011;51229;51.980;6.722;2022-09-25T03:27:58;4.97;;;2.15;;
64795;SDS011;51229;51.980;6.722;2022-09-25T03:30:24;5.80;;;2.03;;
64795;SDS011;51229;51.980;6.722;2022-09-25T03:32:50;5.72;;;2.35;;
64795;SDS011;51229;51.980;6.722;2022-09-25T03:35:16;5.30;;;2.40;;
64795;SDS011;51229;51.980;6.722;2022-09-25T03:37:42;6.00;;;2.10;;
64795;SDS011;51229;51.980;6.722;2022-09-25T03:40:07;6.47;;;1.98;;
64795;SDS011;51229;51.980;6.722;2022-09-25T03:42:33;5.15;;;1.90;;
64795;SDS011;51229;51.980;6.722;2022-09-25T03:45:00;7.13;;;2.30;;
64795;SDS011;51229;51.980;6.722;2022-09-25T03:47:26;7.28;;;2.28;;
64795;SDS011;51229;51.980;6.722;2022-09-25T03:49:52;5.88;;;2.30;;
64795;SDS011;51229;51.980;6.722;2022-09-25T03:52:17;6.18;;;2.10;;
64795;SDS011;51229;51.980;6.722;2022-09-25T03:54:45;7.53;;;2.20;;
64795;SDS011;51229;51.980;6.722;2022-09-25T03:57:11;4.85;;;2.10;;
64795;SDS011;51229;51.980;6.722;2022-09-25T03:59:39;4.72;;;2.35;;
64795;SDS011;51229;51.980;6.722;2022-09-25T04:02:05;6.65;;;2.30;;
64795;SDS011;51229;51.980;6.722;2022-09-25T04:04:30;8.98;;;2.30;;
64795;SDS011;51229;51.980;6.722;2022-09-25T04:06:56;5.22;;;2.20;;
64795;SDS011;51229;51.980;6.722;2022-09-25T04:09:22;7.20;;;2.75;;
64795;SDS011;51229;51.980;6.722;2022-09-25T04:11:48;10.88;;;2.75;;
64795;SDS011;51229;51.980;6.722;2022-09-25T04:14:14;5.80;;;2.40;;
64795;SDS011;51229;51.980;6.722;2022-09-25T04:16:40;8.02;;;2.53;;
64795;SDS011;51229;51.980;6.722;2022-09-25T04:19:06;9.45;;;2.90;;
64795;SDS011;51229;51.980;6.722;2022-09-25T04:21:31;5.20;;;2.30;;
64795;SDS011;51229;51.980;6.722;2022-09-25T04:23:57;12.48;;;2.80;;
64795;SDS011;51229;51.980;6.722;2022-09-25T04:26:41;5.28;;;2.33;;
64795;SDS011;51229;51.980;6.722;2022-09-25T04:29:07;8.80;;;2.47;;
64795;SDS011;51229;51.980;6.722;2022-09-25T04:31:33;5.95;;;2.50;;
64795;SDS011;51229;51.980;6.722;2022-09-25T04:33:58;5.45;;;2.72;;
64795;SDS011;51229;51.980;6.722;2022-09-25T04:36:26;6.28;;;2.25;;
64795;SDS011;51229;51.980;6.722;2022-09-25T04:38:51;5.75;;;2.70;;
64795;SDS011;51229;51.980;6.722;2022-09-25T04:41:17;7.07;;;3.10;;
64795;SDS011;51229;51.980;6.722;2022-09-25T04:43:44;7.05;;;2.80;;
64795;SDS011;51229;51.980;6.722;2022-09-25T04:46:10;7.35;;;3.03;;
64795;SDS011;51229;51.980;6.722;2022-09-25T04:48:37;6.35;;;2.72;;
64795;SDS011;51229;51.980;6.722;2022-09-25T04:51:03;6.85;;;3.05;;
64795;SDS011;51229;51.980;6.722;2022-09-25T04:53:30;6.95;;;2.85;;
64795;SDS011;51229;51.980;6.722;2022-09-25T04:55:59;9.05;;;3.03;;
64795;SDS011;51229;51.980;6.722;2022-09-25T04:58:26;6.63;;;2.70;;
64795;SDS011;51229;51.980;6.722;2022-09-25T05:00:52;8.80;;;3.00;;
64795;SDS011;51229;51.980;6.722;2022-09-25T05:03:18;5.38;;;3.00;;
64795;SDS011;51229;51.980;6.722;2022-09-25T05:05:44;7.18;;;3.22;;
64795;SDS011;51229;51.980;6.722;2022-09-25T05:08:10;7.18;;;3.08;;
64795;SDS011;51229;51.980;6.722;2022-09-25T05:10:35;6.97;;;3.00;;
64795;SDS011;51229;51.980;6.722;2022-09-25T05:13:04;6.63;;;2.95;;
64795;SDS011;51229;51.980;6.722;2022-09-25T05:15:31;6.47;;;2.92;;
64795;SDS011;51229;51.980;6.722;2022-09-25T05:18:04;10.40;;;2.75;;
64795;SDS011;51229;51.980;6.722;2022-09-25T05:20:36;5.07;;;2.70;;
64795;SDS011;51229;51.980;6.722;2022-09-25T05:23:03;8.00;;;2.72;;
64795;SDS011;51229;51.980;6.722;2022-09-25T05:25:28;5.90;;;2.55;;
64795;SDS011;51229;51.980;6.722;2022-09-25T05:27:56;7.03;;;3.03;;
64795;SDS011;51229;51.980;6.722;2022-09-25T05:30:24;8.25;;;2.92;;
64795;SDS011;51229;51.980;6.722;2022-09-25T05:32:51;6.45;;;2.90;;
64795;SDS011;51229;51.980;6.722;2022-09-25T05:35:18;5.78;;;3.15;;
64795;SDS011;51229;51.980;6.722;2022-09-25T05:37:45;8.63;;;2.63;;
64795;SDS011;51229;51.980;6.722;2022-09-25T05:40:11;8.93;;;3.13;;
64795;SDS011;51229;51.980;6.722;2022-09-25T05:42:39;5.72;;;2.47;;
64795;SDS011;51229;51.980;6.722;2022-09-25T05:45:05;5.97;;;2.97;;
64795;SDS011;51229;51.980;6.722;2022-09-25T05:47:31;8.07;;;3.00;;
64795;SDS011;51229;51.980;6.722;2022-09-25T05:49:57;7.07;;;2.83;;
64795;SDS011;51229;51.980;6.722;2022-09-25T05:52:23;4.78;;;2.35;;
64795;SDS011;51229;51.980;6.722;2022-09-25T05:54:48;4.95;;;2.80;;
64795;SDS011;51229;51.980;6.722;2022-09-25T05:57:14;6.07;;;2.70;;
64795;SDS011;51229;51.980;6.722;2022-09-25T05:59:40;6.72;;;2.70;;
64795;SDS011;51229;51.980;6.722;2022-09-25T06:02:07;6.20;;;3.05;;
64795;SDS011;51229;51.980;6.722;2022-09-25T06:04:35;6.43;;;2.83;;
64795;SDS011;51229;51.980;6.722;2022-09-25T06:07:01;8.93;;;3.30;;
64795;SDS011;51229;51.980;6.722;2022-09-25T06:09:27;6.00;;;2.83;;
64795;SDS011;51229;51.980;6.722;2022-09-25T06:11:53;6.53;;;2.83;;
64795;SDS011;51229;51.980;6.722;2022-09-25T06:14:18;7.00;;;2.97;;
64795;SDS011;51229;51.980;6.722;2022-09-25T06:16:47;7.90;;;2.90;;
64795;SDS011;51229;51.980;6.722;2022-09-25T06:19:16;10.45;;;3.15;;
64795;SDS011;51229;51.980;6.722;2022-09-25T06:21:42;9.45;;;3.53;;
64795;SDS011;51229;51.980;6.722;2022-09-25T06:24:08;7.65;;;3.45;;
64795;SDS011;51229;51.980;6.722;2022-09-25T06:26:36;7.88;;;2.83;;
64795;SDS011;51229;51.980;6.722;2022-09-25T06:29:02;7.10;;;2.92;;
64795;SDS011;51229;51.980;6.722;2022-09-25T06:31:28;8.75;;;3.28;;
64795;SDS011;51229;51.980;6.722;2022-09-25T06:33:54;6.18;;;2.83;;
64795;SDS011;51229;51.980;6.722;2022-09-25T06:36:20;6.35;;;2.58;;
64795;SDS011;51229;51.980;6.722;2022-09-25T06:38:47;7.95;;;2.45;;
64795;SDS011;51229;51.980;6.722;2022-09-25T06:41:13;8.10;;;2.53;;
64795;SDS011;51229;51.980;6.722;2022-09-25T06:43:39;7.47;;;3.00;;
64795;SDS011;51229;51.980;6.722;2022-09-25T06:46:04;5.25;;;2.58;;
64795;SDS011;51229;51.980;6.722;2022-09-25T06:48:30;5.43;;;2.70;;
64795;SDS011;51229;51.980;6.722;2022-09-25T06:50:56;8.15;;;3.15;;
64795;SDS011;51229;51.980;6.722;2022-09-25T06:53:25;6.97;;;2.70;;
64795;SDS011;51229;51.980;6.722;2022-09-25T06:55:51;6.95;;;2.90;;
64795;SDS011;51229;51.980;6.722;2022-09-25T06:58:21;5.32;;;2.47;;
64795;SDS011;51229;51.980;6.722;2022-09-25T07:00:48;8.90;;;4.18;;
64795;SDS011;51229;51.980;6.722;2022-09-25T07:03:16;5.25;;;2.67;;
64795;SDS011;51229;51.980;6.722;2022-09-25T07:06:01;4.90;;;2.70;;
64795;SDS011;51229;51.980;6.722;2022-09-25T07:08:28;6.15;;;2.85;;
64795;SDS011;51229;51.980;6.722;2022-09-25T07:10:54;8.88;;;3.10;;
64795;SDS011;51229;51.980;6.722;2022-09-25T07:13:22;6.50;;;2.72;;
64795;SDS011;51229;51.980;6.722;2022-09-25T07:15:53;7.88;;;2.70;;
64795;SDS011;51229;51.980;6.722;2022-09-25T07:18:20;6.80;;;2.95;;
64795;SDS011;51229;51.980;6.722;2022-09-25T07:20:47;6.35;;;2.58;;
64795;SDS011;51229;51.980;6.722;2022-09-25T07:23:14;8.63;;;2.53;;
64795;SDS011;51229;51.980;6.722;2022-09-25T07:25:41;6.10;;;2.85;;
64795;SDS011;51229;51.980;6.722;2022-09-25T07:28:08;8.63;;;2.97;;
64795;SDS011;51229;51.980;6.722;2022-09-25T07:30:36;7.28;;;3.00;;
64795;SDS011;51229;51.980;6.722;2022-09-25T07:33:02;7.90;;;2.90;;
64795;SDS011;51229;51.980;6.722;2022-09-25T07:35:28;6.50;;;2.45;;
64795;SDS011;51229;51.980;6.722;2022-09-25T07:37:55;6.57;;;2.47;;
64795;SDS011;51229;51.980;6.722;2022-09-25T07:40:23;6.63;;;2.58;;
64795;SDS011;51229;51.980;6.722;2022-09-25T07:42:51;5.00;;;2.40;;
64795;SDS011;51229;51.980;6.722;2022-09-25T07:45:17;5.43;;;2.50;;
64795;SDS011;51229;51.980;6.722;2022-09-25T07:47:43;6.35;;;2.60;;
64795;SDS011;51229;51.980;6.722;2022-09-25T07:50:09;8.38;;;3.13;;
64795;SDS011;51229;51.980;6.722;2022-09-25T07:52:34;6.57;;;2.75;;
64795;SDS011;51229;51.980;6.722;2022-09-25T07:55:00;6.05;;;2.20;;
64795;SDS011;51229;51.980;6.722;2022-09-25T07:57:26;6.63;;;2.30;;
64795;SDS011;51229;51.980;6.722;2022-09-25T07:59:52;8.60;;;2.53;;
64795;SDS011;51229;51.980;6.722;2022-09-25T08:02:17;6.93;;;2.22;;
64795;SDS011;51229;51.980;6.722;2022-09-25T08:04:43;10.15;;;2.15;;
64795;SDS011;51229;51.980;6.722;2022-09-25T08:07:09;7.18;;;2.08;;
64795;SDS011;51229;51.980;6.722;2022-09-25T08:09:34;7.80;;;1.92;;
64795;SDS011;51229;51.980;6.722;2022-09-25T08:12:00;5.90;;;2.15;;
64795;SDS011;51229;51.980;6.722;2022-09-25T08:14:26;7.88;;;2.33;;
64795;SDS011;51229;51.980;6.722;2022-09-25T08:16:53;6.90;;;2.08;;
64795;SDS011;51229;51.980;6.722;2022-09-25T08:19:20;6.30;;;2.40;;
64795;SDS011;51229;51.980;6.722;2022-09-25T08:21:47;6.70;;;1.80;;
64795;SDS011;51229;51.980;6.722;2022-09-25T08:24:14;6.75;;;2.42;;
64795;SDS011;51229;51.980;6.722;2022-09-25T08:26:40;6.85;;;1.80;;
64795;SDS011;51229;51.980;6.722;2022-09-25T08:29:05;7.60;;;2.00;;
64795;SDS011;51229;51.980;6.722;2022-09-25T08:31:33;4.63;;;2.00;;
64795;SDS011;51229;51.980;6.722;2022-09-25T08:33:59;5.10;;;1.98;;
64795;SDS011;51229;51.980;6.722;2022-09-25T08:36:25;5.70;;;1.60;;
64795;SDS011;51229;51.980;6.722;2022-09-25T08:38:51;5.10;;;2.08;;
64795;SDS011;51229;51.980;6.722;2022-09-25T08:41:22;9.18;;;2.28;;
64795;SDS011;51229;51.980;6.722;2022-09-25T08:43:56;4.25;;;1.52;;
64795;SDS011;51229;51.980;6.722;2022-09-25T08:46:52;6.35;;;1.73;;
64795;SDS011;51229;51.980;6.722;2022-09-25T08:49:37;6.43;;;1.42;;
64795;SDS011;51229;51.980;6.722;2022-09-25T08:52:07;3.85;;;1.50;;
64795;SDS011;51229;51.980;6.722;2022-09-25T08:54:38;3.72;;;1.23;;
64795;SDS011;51229;51.980;6.722;2022-09-25T08:59:53;6.00;;;1.50;;
64795;SDS011;51229;51.980;6.722;2022-09-25T09:02:27;4.63;;;1.52;;
64795;SDS011;51229;51.980;6.722;2022-09-25T09:05:08;6.32;;;1.73;;
64795;SDS011;51229;51.980;6.722;2022-09-25T09:07:43;5.40;;;1.50;;
64795;SDS011;51229;51.980;6.722;2022-09-25T09:13:15;7.65;;;1.70;;
64795;SDS011;51229;51.980;6.722;2022-09-25T09:20:55;4.82;;;1.10;;
64795;SDS011;51229;51.980;6.722;2022-09-25T09:23:23;4.18;;;1.02;;
64795;SDS011;51229;51.980;6.722;2022-09-25T09:26:02;5.32;;;1.10;;
64795;SDS011;51229;51.980;6.722;2022-09-25T09:31:04;3.30;;;1.10;;
64795;SDS011;51229;51.980;6.722;2022-09-25T09:36:25;4.00;;;0.90;;
64795;SDS011;51229;51.980;6.722;2022-09-25T09:44:38;3.35;;;1.00;;
64795;SDS011;51229;51.980;6.722;2022-09-25T09:47:45;3.92;;;0.90;;
64795;SDS011;51229;51.980;6.722;2022-09-25T09:50:42;3.55;;;1.00;;
64795;SDS011;51229;51.980;6.722;2022-09-25T09:53:19;4.28;;;1.10;;
64795;SDS011;51229;51.980;6.722;2022-09-25T09:55:50;3.33;;;0.90;;
64795;SDS011;51229;51.980;6.722;2022-09-25T09:58:24;6.05;;;1.00;;
64795;SDS011;51229;51.980;6.722;2022-09-25T10:01:07;3.95;;;1.00;;
64795;SDS011;51229;51.980;6.722;2022-09-25T10:03:35;3.65;;;1.10;;
64795;SDS011;51229;51.980;6.722;2022-09-25T10:06:04;4.65;;;1.40;;
64795;SDS011;51229;51.980;6.722;2022-09-25T10:08:35;4.73;;;1.20;;
64795;SDS011;51229;51.980;6.722;2022-09-25T10:11:03;4.47;;;1.10;;
64795;SDS011;51229;51.980;6.722;2022-09-25T10:13:37;3.88;;;0.88;;
64795;SDS011;51229;51.980;6.722;2022-09-25T10:18:53;4.40;;;0.90;;
64795;SDS011;51229;51.980;6.722;2022-09-25T10:21:47;5.93;;;0.90;;
64795;SDS011;51229;51.980;6.722;2022-09-25T10:30:27;3.13;;;0.90;;
64795;SDS011;51229;51.980;6.722;2022-09-25T10:32:54;4.63;;;0.80;;
64795;SDS011;51229;51.980;6.722;2022-09-25T10:37:55;5.03;;;0.95;;
64795;SDS011;51229;51.980;6.722;2022-09-25T10:43:00;3.72;;;0.90;;
64795;SDS011;51229;51.980;6.722;2022-09-25T10:47:55;4.63;;;0.88;;
64795;SDS011;51229;51.980;6.722;2022-09-25T10:50:40;4.72;;;0.73;;
64795;SDS011;51229;51.980;6.722;2022-09-25T10:53:22;3.42;;;0.85;;
64795;SDS011;51229;51.980;6.722;2022-09-25T10:56:02;4.90;;;0.90;;
64795;SDS011;51229;51.980;6.722;2022-09-25T10:58:42;3.33;;;0.80;;
64795;SDS011;51229;51.980;6.722;2022-09-25T11:01:12;5.00;;;0.88;;
64795;SDS011;51229;51.980;6.722;2022-09-25T11:03:44;4.63;;;1.02;;
64795;SDS011;51229;51.980;6.722;2022-09-25T11:06:18;3.78;;;0.75;;
64795;SDS011;51229;51.980;6.722;2022-09-25T11:08:52;5.63;;;1.10;;
64795;SDS011;51229;51.980;6.722;2022-09-25T11:11:26;3.08;;;0.85;;
64795;SDS011;51229;51.980;6.722;2022-09-25T11:13:53;2.25;;;0.80;;
64795;SDS011;51229;51.980;6.722;2022-09-25T11:16:40;2.47;;;1.05;;
64795;SDS011;51229;51.980;6.722;2022-09-25T11:19:14;2.67;;;0.68;;
64795;SDS011;51229;51.980;6.722;2022-09-25T11:22:10;3.92;;;1.00;;
64795;SDS011;51229;51.980;6.722;2022-09-25T11:24:46;4.93;;;0.90;;
64795;SDS011;51229;51.980;6.722;2022-09-25T11:27:29;3.83;;;0.85;;
64795;SDS011;51229;51.980;6.722;2022-09-25T11:30:38;4.10;;;0.90;;
64795;SDS011;51229;51.980;6.722;2022-09-25T11:36:05;2.90;;;0.70;;
64795;SDS011;51229;51.980;6.722;2022-09-25T11:38:42;6.05;;;1.00;;
64795;SDS011;51229;51.980;6.722;2022-09-25T11:44:30;3.03;;;0.80;;
64795;SDS011;51229;51.980;6.722;2022-09-25T11:47:24;3.97;;;0.73;;
64795;SDS011;51229;51.980;6.722;2022-09-25T11:50:11;2.47;;;0.68;;
64795;SDS011;51229;51.980;6.722;2022-09-25T11:56:08;5.43;;;0.90;;
64795;SDS011;51229;51.980;6.722;2022-09-25T12:09:25;1.95;;;0.70;;
64795;SDS011;51229;51.980;6.722;2022-09-25T12:12:25;2.28;;;0.75;;
64795;SDS011;51229;51.980;6.722;2022-09-25T12:33:56;2.75;;;0.65;;
64795;SDS011;51229;51.980;6.722;2022-09-25T12:36:52;4.95;;;1.00;;
64795;SDS011;51229;51.980;6.722;2022-09-25T12:39:40;2.15;;;0.82;;
64795;SDS011;51229;51.980;6.722;2022-09-25T12:42:14;1.67;;;0.70;;
64795;SDS011;51229;51.980;6.722;2022-09-25T12:47:21;3.03;;;0.90;;
64795;SDS011;51229;51.980;6.722;2022-09-25T12:50:07;3.83;;;0.90;;
64795;SDS011;51229;51.980;6.722;2022-09-25T12:52:40;4.65;;;1.20;;
64795;SDS011;51229;51.980;6.722;2022-09-25T12:55:20;2.65;;;0.85;;
64795;SDS011;51229;51.980;6.722;2022-09-25T12:57:50;3.00;;;1.00;;
64795;SDS011;51229;51.980;6.722;2022-09-25T13:00:32;2.83;;;0.90;;
64795;SDS011;51229;51.980;6.722;2022-09-25T13:03:12;2.45;;;0.70;;
64795;SDS011;51229;51.980;6.722;2022-09-25T13:05:52;2.40;;;0.80;;
64795;SDS011;51229;51.980;6.722;2022-09-25T13:08:32;3.75;;;1.00;;
64795;SDS011;51229;51.980;6.722;2022-09-25T13:14:02;2.53;;;0.90;;
64795;SDS011;51229;51.980;6.722;2022-09-25T13:16:32;4.47;;;1.10;;
64795;SDS011;51229;51.980;6.722;2022-09-25T13:19:21;3.78;;;1.00;;
64795;SDS011;51229;51.980;6.722;2022-09-25T13:21:57;2.97;;;1.00;;
64795;SDS011;51229;51.980;6.722;2022-09-25T13:24:51;4.07;;;1.10;;
64795;SDS011;51229;51.980;6.722;2022-09-25T13:27:22;3.03;;;0.75;;
64795;SDS011;51229;51.980;6.722;2022-09-25T13:29:51;4.20;;;0.88;;
64795;SDS011;51229;51.980;6.722;2022-09-25T13:32:20;2.67;;;0.80;;
64795;SDS011;51229;51.980;6.722;2022-09-25T13:34:50;5.40;;;1.10;;
64795;SDS011;51229;51.980;6.722;2022-09-25T13:37:21;4.05;;;0.80;;
64795;SDS011;51229;51.980;6.722;2022-09-25T13:39:53;3.10;;;1.00;;
64795;SDS011;51229;51.980;6.722;2022-09-25T13:42:41;3.38;;;0.80;;
64795;SDS011;51229;51.980;6.722;2022-09-25T13:47:59;3.10;;;1.02;;
64795;SDS011;51229;51.980;6.722;2022-09-25T13:50:39;3.20;;;0.93;;
64795;SDS011;51229;51.980;6.722;2022-09-25T13:58:28;3.78;;;0.85;;
64795;SDS011;51229;51.980;6.722;2022-09-25T14:00:58;3.80;;;1.10;;
64795;SDS011;51229;51.980;6.722;2022-09-25T14:03:44;2.45;;;0.90;;
64795;SDS011;51229;51.980;6.722;2022-09-25T14:06:22;2.45;;;0.98;;
64795;SDS011;51229;51.980;6.722;2022-09-25T14:08:50;3.08;;;0.90;;
64795;SDS011;51229;51.980;6.722;2022-09-25T14:11:21;2.90;;;0.88;;
64795;SDS011;51229;51.980;6.722;2022-09-25T14:13:55;2.88;;;1.30;;
64795;SDS011;51229;51.980;6.722;2022-09-25T14:16:27;4.25;;;0.80;;
64795;SDS011;51229;51.980;6.722;2022-09-25T14:18:57;2.80;;;0.90;;
64795;SDS011;51229;51.980;6.722;2022-09-25T14:21:24;3.15;;;1.00;;
64795;SDS011;51229;51.980;6.722;2022-09-25T14:23:55;1.75;;;0.77;;
64795;SDS011;51229;51.980;6.722;2022-09-25T14:26:36;2.08;;;0.80;;
64795;SDS011;51229;51.980;6.722;2022-09-25T14:29:15;1.17;;;0.60;;
64795;SDS011;51229;51.980;6.722;2022-09-25T14:35:31;2.40;;;0.80;;
64795;SDS011;51229;51.980;6.722;2022-09-25T14:47:08;3.70;;;0.80;;
64795;SDS011;51229;51.980;6.722;2022-09-25T14:49:38;4.25;;;0.80;;
64795;SDS011;51229;51.980;6.722;2022-09-25T14:52:08;2.33;;;0.95;;
64795;SDS011;51229;51.980;6.722;2022-09-25T14:54:37;3.83;;;1.00;;
64795;SDS011;51229;51.980;6.722;2022-09-25T14:57:06;3.22;;;0.95;;
64795;SDS011;51229;51.980;6.722;2022-09-25T15:02:16;2.35;;;0.82;;
64795;SDS011;51229;51.980;6.722;2022-09-25T15:04:46;2.45;;;0.77;;
64795;SDS011;51229;51.980;6.722;2022-09-25T15:07:16;2.58;;;0.90;;
64795;SDS011;51229;51.980;6.722;2022-09-25T15:09:48;3.00;;;0.80;;
64795;SDS011;51229;51.980;6.722;2022-09-25T15:15:23;4.30;;;0.75;;
64795;SDS011;51229;51.980;6.722;2022-09-25T15:17:44;4.40;;;1.00;;
64795;SDS011;51229;51.980;6.722;2022-09-25T15:20:13;4.43;;;0.90;;
64795;SDS011;51229;51.980;6.722;2022-09-25T15:22:44;2.15;;;0.82;;
64795;SDS011;51229;51.980;6.722;2022-09-25T15:25:27;3.22;;;0.90;;
64795;SDS011;51229;51.980;6.722;2022-09-25T15:27:55;4.18;;;0.80;;
64795;SDS011;51229;51.980;6.722;2022-09-25T15:30:22;2.45;;;0.80;;
64795;SDS011;51229;51.980;6.722;2022-09-25T15:32:51;1.98;;;0.70;;
64795;SDS011;51229;51.980;6.722;2022-09-25T15:35:22;3.28;;;1.08;;
64795;SDS011;51229;51.980;6.722;2022-09-25T15:38:00;2.97;;;0.80;;
64795;SDS011;51229;51.980;6.722;2022-09-25T15:40:35;2.78;;;0.90;;
64795;SDS011;51229;51.980;6.722;2022-09-25T15:43:01;3.25;;;0.80;;
64795;SDS011;51229;51.980;6.722;2022-09-25T15:50:34;2.17;;;0.75;;
64795;SDS011;51229;51.980;6.722;2022-09-25T15:53:03;2.72;;;0.68;;
64795;SDS011;51229;51.980;6.722;2022-09-25T15:55:29;1.42;;;0.80;;
64795;SDS011;51229;51.980;6.722;2022-09-25T15:58:02;2.20;;;0.65;;
64795;SDS011;51229;51.980;6.722;2022-09-25T16:00:36;1.88;;;0.60;;
64795;SDS011;51229;51.980;6.722;2022-09-25T16:03:22;2.20;;;0.90;;
64795;SDS011;51229;51.980;6.722;2022-09-25T16:06:13;2.58;;;0.80;;
64795;SDS011;51229;51.980;6.722;2022-09-25T16:08:40;2.38;;;0.88;;
64795;SDS011;51229;51.980;6.722;2022-09-25T16:13:33;3.17;;;0.93;;
64795;SDS011;51229;51.980;6.722;2022-09-25T16:16:06;2.03;;;0.88;;
64795;SDS011;51229;51.980;6.722;2022-09-25T16:18:45;2.38;;;0.75;;
64795;SDS011;51229;51.980;6.722;2022-09-25T16:23:40;2.85;;;0.70;;
64795;SDS011;51229;51.980;6.722;2022-09-25T16:26:17;2.08;;;0.80;;
64795;SDS011;51229;51.980;6.722;2022-09-25T16:28:47;3.53;;;1.00;;
64795;SDS011;51229;51.980;6.722;2022-09-25T16:31:23;2.88;;;0.90;;
64795;SDS011;51229;51.980;6.722;2022-09-25T16:33:50;2.92;;;0.80;;
64795;SDS011;51229;51.980;6.722;2022-09-25T16:36:19;2.28;;;0.90;;
64795;SDS011;51229;51.980;6.722;2022-09-25T16:39:20;1.98;;;0.80;;
64795;SDS011;51229;51.980;6.722;2022-09-25T16:41:47;2.25;;;0.70;;
64795;SDS011;51229;51.980;6.722;2022-09-25T16:46:44;3.25;;;1.05;;
64795;SDS011;51229;51.980;6.722;2022-09-25T16:49:29;2.03;;;0.80;;
64795;SDS011;51229;51.980;6.722;2022-09-25T16:51:58;2.03;;;0.80;;
64795;SDS011;51229;51.980;6.722;2022-09-25T16:54:24;3.58;;;1.08;;
64795;SDS011;51229;51.980;6.722;2022-09-25T16:56:55;2.85;;;0.95;;
64795;SDS011;51229;51.980;6.722;2022-09-25T16:59:26;1.38;;;0.60;;
64795;SDS011;51229;51.980;6.722;2022-09-25T17:01:54;2.05;;;0.90;;
64795;SDS011;51229;51.980;6.722;2022-09-25T17:04:26;2.55;;;1.00;;
64795;SDS011;51229;51.980;6.722;2022-09-25T17:06:54;3.58;;;1.02;;
64795;SDS011;51229;51.980;6.722;2022-09-25T17:09:24;5.88;;;2.17;;
64795;SDS011;51229;51.980;6.722;2022-09-25T17:11:53;3.25;;;1.10;;
64795;SDS011;51229;51.980;6.722;2022-09-25T17:14:25;3.40;;;1.30;;
64795;SDS011;51229;51.980;6.722;2022-09-25T17:16:53;2.67;;;1.00;;
64795;SDS011;51229;51.980;6.722;2022-09-25T17:19:20;2.05;;;0.82;;
64795;SDS011;51229;51.980;6.722;2022-09-25T17:21:47;3.50;;;1.40;;
64795;SDS011;51229;51.980;6.722;2022-09-25T17:24:20;2.75;;;1.30;;
64795;SDS011;51229;51.980;6.722;2022-09-25T17:26:49;2.65;;;1.30;;
64795;SDS011;51229;51.980;6.722;2022-09-25T17:29:16;2.75;;;1.35;;
64795;SDS011;51229;51.980;6.722;2022-09-25T17:31:42;3.97;;;1.52;;
64795;SDS011;51229;51.980;6.722;2022-09-25T17:34:18;3.60;;;1.55;;
64795;SDS011;51229;51.980;6.722;2022-09-25T17:36:48;5.95;;;2.08;;